sensor_id;sensor_type;location;lat;lon;timestamp;temperature;humidity
36716;DHT22;22699;51.034;3.730;2024-03-08T00:02:23;6.90;99.90
36716;DHT22;22699;51.034;3.730;2024-03-08T00:04:49;6.90;99.90
36716;DHT22;22699;51.034;3.730;2024-03-08T00:07:15;6.80;99.90
36716;DHT22;22699;51.034;3.730;2024-03-08T00:09:41;6.80;99.90
36716;DHT22;22699;51.034;3.730;2024-03-08T00:12:06;6.80;99.90
36716;DHT22;22699;51.034;3.730;2024-03-08T00:14:32;6.80;99.90
36716;DHT22;22699;51.034;3.730;2024-03-08T00:16:58;6.80;99.90
36716;DHT22;22699;51.034;3.730;2024-03-08T00:19:24;6.80;99.90
36716;DHT22;22699;51.034;3.730;2024-03-08T00:21:49;6.80;99.90
36716;DHT22;22699;51.034;3.730;2024-03-08T00:24:15;6.80;99.90
36716;DHT22;22699;51.034;3.730;2024-03-08T00:26:41;6.70;99.90
36716;DHT22;22699;51.034;3.730;2024-03-08T00:29:07;6.70;99.90
36716;DHT22;22699;51.034;3.730;2024-03-08T00:31:33;6.70;99.90
36716;DHT22;22699;51.034;3.730;2024-03-08T00:33:59;6.60;99.90
36716;DHT22;22699;51.034;3.730;2024-03-08T00:36:25;6.60;99.90
36716;DHT22;22699;51.034;3.730;2024-03-08T00:38:50;6.60;99.90
36716;DHT22;22699;51.034;3.730;2024-03-08T00:41:16;6.50;99.90
36716;DHT22;22699;51.034;3.730;2024-03-08T00:43:42;6.60;99.90
36716;DHT22;22699;51.034;3.730;2024-03-08T00:46:07;6.60;99.90
36716;DHT22;22699;51.034;3.730;2024-03-08T00:48:33;6.50;99.90
36716;DHT22;22699;51.034;3.730;2024-03-08T00:50:58;6.50;99.90
36716;DHT22;22699;51.034;3.730;2024-03-08T00:53:24;6.50;99.90
36716;DHT22;22699;51.034;3.730;2024-03-08T00:55:50;6.40;99.90
36716;DHT22;22699;51.034;3.730;2024-03-08T00:58:15;6.50;99.90
36716;DHT22;22699;51.034;3.730;2024-03-08T01:00:41;6.40;99.90
36716;DHT22;22699;51.034;3.730;2024-03-08T01:03:07;6.40;99.90
36716;DHT22;22699;51.034;3.730;2024-03-08T01:05:33;6.70;99.90
36716;DHT22;22699;51.034;3.730;2024-03-08T01:08:00;6.50;99.90
36716;DHT22;22699;51.034;3.730;2024-03-08T01:10:26;6.20;99.90
36716;DHT22;22699;51.034;3.730;2024-03-08T01:12:52;6.30;99.90
36716;DHT22;22699;51.034;3.730;2024-03-08T01:15:20;6.30;99.90
36716;DHT22;22699;51.034;3.730;2024-03-08T01:17:45;6.20;99.90
36716;DHT22;22699;51.034;3.730;2024-03-08T01:20:12;6.20;99.90
36716;DHT22;22699;51.034;3.730;2024-03-08T01:22:38;6.20;99.90
36716;DHT22;22699;51.034;3.730;2024-03-08T01:25:04;6.30;99.90
36716;DHT22;22699;51.034;3.730;2024-03-08T01:27:30;6.20;99.90
36716;DHT22;22699;51.034;3.730;2024-03-08T01:29:56;6.30;99.90
36716;DHT22;22699;51.034;3.730;2024-03-08T01:32:24;6.20;99.90
36716;DHT22;22699;51.034;3.730;2024-03-08T01:34:50;6.20;99.90
36716;DHT22;22699;51.034;3.730;2024-03-08T01:37:16;6.20;99.90
36716;DHT22;22699;51.034;3.730;2024-03-08T01:39:41;6.20;99.90
36716;DHT22;22699;51.034;3.730;2024-03-08T01:42:07;6.10;99.90
36716;DHT22;22699;51.034;3.730;2024-03-08T01:44:33;6.20;99.90
36716;DHT22;22699;51.034;3.730;2024-03-08T01:47:00;6.10;99.90
36716;DHT22;22699;51.034;3.730;2024-03-08T01:49:26;6.00;99.90
36716;DHT22;22699;51.034;3.730;2024-03-08T01:51:54;6.00;99.90
36716;DHT22;22699;51.034;3.730;2024-03-08T01:54:22;6.00;99.90
36716;DHT22;22699;51.034;3.730;2024-03-08T01:56:50;6.00;99.90
36716;DHT22;22699;51.034;3.730;2024-03-08T01:59:16;6.00;99.90
36716;DHT22;22699;51.034;3.730;2024-03-08T02:01:43;6.00;99.90
36716;DHT22;22699;51.034;3.730;2024-03-08T02:04:09;6.00;99.90
36716;DHT22;22699;51.034;3.730;2024-03-08T02:06:34;5.90;99.90
36716;DHT22;22699;51.034;3.730;2024-03-08T02:09:00;5.90;99.90
36716;DHT22;22699;51.034;3.730;2024-03-08T02:11:32;5.90;99.90
36716;DHT22;22699;51.034;3.730;2024-03-08T02:13:58;5.90;99.90
36716;DHT22;22699;51.034;3.730;2024-03-08T02:16:23;5.90;99.90
36716;DHT22;22699;51.034;3.730;2024-03-08T02:18:49;5.90;99.90
36716;DHT22;22699;51.034;3.730;2024-03-08T02:21:17;5.90;99.90
36716;DHT22;22699;51.034;3.730;2024-03-08T02:23:46;5.80;99.90
36716;DHT22;22699;51.034;3.730;2024-03-08T02:26:13;5.80;99.90
36716;DHT22;22699;51.034;3.730;2024-03-08T02:28:39;5.80;99.90
36716;DHT22;22699;51.034;3.730;2024-03-08T02:31:05;5.80;99.90
36716;DHT22;22699;51.034;3.730;2024-03-08T02:33:34;5.70;99.90
36716;DHT22;22699;51.034;3.730;2024-03-08T02:35:59;5.80;99.90
36716;DHT22;22699;51.034;3.730;2024-03-08T02:38:25;5.80;99.90
36716;DHT22;22699;51.034;3.730;2024-03-08T02:40:52;5.70;99.90
36716;DHT22;22699;51.034;3.730;2024-03-08T02:43:19;5.70;99.90
36716;DHT22;22699;51.034;3.730;2024-03-08T02:45:45;5.70;99.90
36716;DHT22;22699;51.034;3.730;2024-03-08T02:48:11;5.70;99.90
36716;DHT22;22699;51.034;3.730;2024-03-08T02:50:38;5.70;99.90
36716;DHT22;22699;51.034;3.730;2024-03-08T02:53:06;5.60;99.90
36716;DHT22;22699;51.034;3.730;2024-03-08T02:55:33;5.60;99.90
36716;DHT22;22699;51.034;3.730;2024-03-08T02:58:02;5.60;99.90
36716;DHT22;22699;51.034;3.730;2024-03-08T03:00:29;5.60;99.90
36716;DHT22;22699;51.034;3.730;2024-03-08T03:02:59;5.60;99.90
36716;DHT22;22699;51.034;3.730;2024-03-08T03:05:24;5.50;99.90
36716;DHT22;22699;51.034;3.730;2024-03-08T03:07:51;5.60;99.90
36716;DHT22;22699;51.034;3.730;2024-03-08T03:10:18;5.70;99.90
36716;DHT22;22699;51.034;3.730;2024-03-08T03:12:44;5.50;99.90
36716;DHT22;22699;51.034;3.730;2024-03-08T03:15:11;5.60;99.90
36716;DHT22;22699;51.034;3.730;2024-03-08T03:17:38;5.50;99.90
36716;DHT22;22699;51.034;3.730;2024-03-08T03:20:08;5.50;99.90
36716;DHT22;22699;51.034;3.730;2024-03-08T03:22:39;5.50;99.90
36716;DHT22;22699;51.034;3.730;2024-03-08T03:25:07;5.40;99.90
36716;DHT22;22699;51.034;3.730;2024-03-08T03:27:33;5.40;99.90
36716;DHT22;22699;51.034;3.730;2024-03-08T03:29:59;5.40;99.90
36716;DHT22;22699;51.034;3.730;2024-03-08T03:32:44;5.40;99.90
36716;DHT22;22699;51.034;3.730;2024-03-08T03:35:13;5.40;99.90
36716;DHT22;22699;51.034;3.730;2024-03-08T03:37:41;5.40;99.90
36716;DHT22;22699;51.034;3.730;2024-03-08T03:40:09;5.40;99.90
36716;DHT22;22699;51.034;3.730;2024-03-08T03:42:35;5.30;99.90
36716;DHT22;22699;51.034;3.730;2024-03-08T03:45:01;5.30;99.90
36716;DHT22;22699;51.034;3.730;2024-03-08T03:47:29;5.40;99.90
36716;DHT22;22699;51.034;3.730;2024-03-08T03:49:54;5.30;99.90
36716;DHT22;22699;51.034;3.730;2024-03-08T03:52:21;5.30;99.90
36716;DHT22;22699;51.034;3.730;2024-03-08T03:54:47;5.30;99.90
36716;DHT22;22699;51.034;3.730;2024-03-08T03:57:12;5.30;99.90
36716;DHT22;22699;51.034;3.730;2024-03-08T03:59:40;5.20;99.90
36716;DHT22;22699;51.034;3.730;2024-03-08T04:02:06;5.20;99.90
36716;DHT22;22699;51.034;3.730;2024-03-08T04:04:32;5.20;99.90
36716;DHT22;22699;51.034;3.730;2024-03-08T04:06:57;5.10;99.90
36716;DHT22;22699;51.034;3.730;2024-03-08T04:09:23;5.10;99.90
36716;DHT22;22699;51.034;3.730;2024-03-08T04:11:49;5.10;99.90
36716;DHT22;22699;51.034;3.730;2024-03-08T04:14:18;5.10;99.90
36716;DHT22;22699;51.034;3.730;2024-03-08T04:16:44;5.10;99.90
36716;DHT22;22699;51.034;3.730;2024-03-08T04:19:09;5.10;99.90
36716;DHT22;22699;51.034;3.730;2024-03-08T04:21:35;5.00;99.90
36716;DHT22;22699;51.034;3.730;2024-03-08T04:24:01;5.00;99.90
36716;DHT22;22699;51.034;3.730;2024-03-08T04:26:26;5.50;99.90
36716;DHT22;22699;51.034;3.730;2024-03-08T04:28:53;5.00;99.90
36716;DHT22;22699;51.034;3.730;2024-03-08T04:31:19;5.10;99.90
36716;DHT22;22699;51.034;3.730;2024-03-08T04:33:44;5.00;99.90
36716;DHT22;22699;51.034;3.730;2024-03-08T04:36:10;5.00;99.90
36716;DHT22;22699;51.034;3.730;2024-03-08T04:38:40;4.90;99.90
36716;DHT22;22699;51.034;3.730;2024-03-08T04:41:06;4.90;99.90
36716;DHT22;22699;51.034;3.730;2024-03-08T04:43:33;4.90;99.90
36716;DHT22;22699;51.034;3.730;2024-03-08T04:45:59;4.90;99.90
36716;DHT22;22699;51.034;3.730;2024-03-08T04:48:25;4.90;99.90
36716;DHT22;22699;51.034;3.730;2024-03-08T04:50:53;4.90;99.90
36716;DHT22;22699;51.034;3.730;2024-03-08T04:53:19;5.00;99.90
36716;DHT22;22699;51.034;3.730;2024-03-08T04:55:45;4.90;99.90
36716;DHT22;22699;51.034;3.730;2024-03-08T04:58:10;4.90;99.90
36716;DHT22;22699;51.034;3.730;2024-03-08T05:00:36;4.90;99.90
36716;DHT22;22699;51.034;3.730;2024-03-08T05:03:02;4.80;99.90
36716;DHT22;22699;51.034;3.730;2024-03-08T05:05:28;4.80;99.90
36716;DHT22;22699;51.034;3.730;2024-03-08T05:07:54;4.80;99.90
36716;DHT22;22699;51.034;3.730;2024-03-08T05:10:20;4.70;99.90
36716;DHT22;22699;51.034;3.730;2024-03-08T05:12:46;4.80;99.90
36716;DHT22;22699;51.034;3.730;2024-03-08T05:15:11;4.80;99.90
36716;DHT22;22699;51.034;3.730;2024-03-08T05:17:37;4.80;99.90
36716;DHT22;22699;51.034;3.730;2024-03-08T05:20:03;4.70;99.90
36716;DHT22;22699;51.034;3.730;2024-03-08T05:22:33;4.70;99.90
36716;DHT22;22699;51.034;3.730;2024-03-08T05:24:59;4.60;99.90
36716;DHT22;22699;51.034;3.730;2024-03-08T05:27:25;4.60;99.90
36716;DHT22;22699;51.034;3.730;2024-03-08T05:29:50;4.70;99.90
36716;DHT22;22699;51.034;3.730;2024-03-08T05:32:16;4.50;99.90
36716;DHT22;22699;51.034;3.730;2024-03-08T05:34:42;4.60;99.90
36716;DHT22;22699;51.034;3.730;2024-03-08T05:37:08;4.60;99.90
36716;DHT22;22699;51.034;3.730;2024-03-08T05:39:34;4.60;99.90
36716;DHT22;22699;51.034;3.730;2024-03-08T05:41:59;4.60;99.90
36716;DHT22;22699;51.034;3.730;2024-03-08T05:44:25;4.60;99.90
36716;DHT22;22699;51.034;3.730;2024-03-08T05:46:54;4.60;99.90
36716;DHT22;22699;51.034;3.730;2024-03-08T05:49:21;4.60;99.90
36716;DHT22;22699;51.034;3.730;2024-03-08T05:51:47;4.50;99.90
36716;DHT22;22699;51.034;3.730;2024-03-08T05:54:13;4.60;99.90
36716;DHT22;22699;51.034;3.730;2024-03-08T05:56:40;4.60;99.90
36716;DHT22;22699;51.034;3.730;2024-03-08T05:59:10;4.60;99.90
36716;DHT22;22699;51.034;3.730;2024-03-08T06:01:36;4.60;99.90
36716;DHT22;22699;51.034;3.730;2024-03-08T06:04:03;4.70;99.90
36716;DHT22;22699;51.034;3.730;2024-03-08T06:06:29;4.60;99.90
36716;DHT22;22699;51.034;3.730;2024-03-08T06:08:55;4.60;99.90
36716;DHT22;22699;51.034;3.730;2024-03-08T06:11:24;4.60;99.90
36716;DHT22;22699;51.034;3.730;2024-03-08T06:13:52;4.60;99.90
36716;DHT22;22699;51.034;3.730;2024-03-08T06:16:25;4.50;99.90
36716;DHT22;22699;51.034;3.730;2024-03-08T06:18:57;4.50;99.90
36716;DHT22;22699;51.034;3.730;2024-03-08T06:21:24;4.60;99.90
36716;DHT22;22699;51.034;3.730;2024-03-08T06:23:55;4.70;99.90
36716;DHT22;22699;51.034;3.730;2024-03-08T06:26:23;4.50;99.90
36716;DHT22;22699;51.034;3.730;2024-03-08T06:28:49;4.50;99.90
36716;DHT22;22699;51.034;3.730;2024-03-08T06:31:16;4.50;99.90
36716;DHT22;22699;51.034;3.730;2024-03-08T06:33:42;4.50;99.90
36716;DHT22;22699;51.034;3.730;2024-03-08T06:36:09;4.60;99.90
36716;DHT22;22699;51.034;3.730;2024-03-08T06:38:34;4.60;99.90
36716;DHT22;22699;51.034;3.730;2024-03-08T06:41:00;4.60;99.90
36716;DHT22;22699;51.034;3.730;2024-03-08T06:43:28;4.50;99.90
36716;DHT22;22699;51.034;3.730;2024-03-08T06:45:59;4.60;99.90
36716;DHT22;22699;51.034;3.730;2024-03-08T06:48:25;4.50;99.90
36716;DHT22;22699;51.034;3.730;2024-03-08T06:50:51;4.50;99.90
36716;DHT22;22699;51.034;3.730;2024-03-08T06:53:16;4.60;99.90
36716;DHT22;22699;51.034;3.730;2024-03-08T06:55:44;4.50;99.90
36716;DHT22;22699;51.034;3.730;2024-03-08T06:58:10;4.60;99.90
36716;DHT22;22699;51.034;3.730;2024-03-08T07:00:37;4.60;99.90
36716;DHT22;22699;51.034;3.730;2024-03-08T07:03:02;4.50;99.90
36716;DHT22;22699;51.034;3.730;2024-03-08T07:05:29;4.60;99.90
36716;DHT22;22699;51.034;3.730;2024-03-08T07:07:55;4.80;99.90
36716;DHT22;22699;51.034;3.730;2024-03-08T07:10:25;4.80;99.90
36716;DHT22;22699;51.034;3.730;2024-03-08T07:12:51;4.80;99.90
36716;DHT22;22699;51.034;3.730;2024-03-08T07:15:18;4.90;99.90
36716;DHT22;22699;51.034;3.730;2024-03-08T07:17:47;4.90;99.90
36716;DHT22;22699;51.034;3.730;2024-03-08T07:20:14;5.10;99.90
36716;DHT22;22699;51.034;3.730;2024-03-08T07:22:43;5.00;99.90
36716;DHT22;22699;51.034;3.730;2024-03-08T07:25:08;4.90;99.90
36716;DHT22;22699;51.034;3.730;2024-03-08T07:27:53;4.90;99.90
36716;DHT22;22699;51.034;3.730;2024-03-08T07:30:21;4.90;99.90
36716;DHT22;22699;51.034;3.730;2024-03-08T07:33:07;5.00;99.90
36716;DHT22;22699;51.034;3.730;2024-03-08T07:35:33;5.00;99.90
36716;DHT22;22699;51.034;3.730;2024-03-08T07:38:03;5.10;99.90
36716;DHT22;22699;51.034;3.730;2024-03-08T07:40:30;5.10;99.90
36716;DHT22;22699;51.034;3.730;2024-03-08T07:42:55;5.20;99.90
36716;DHT22;22699;51.034;3.730;2024-03-08T07:45:22;5.30;99.90
36716;DHT22;22699;51.034;3.730;2024-03-08T07:47:47;5.70;99.90
36716;DHT22;22699;51.034;3.730;2024-03-08T07:50:13;5.90;99.90
36716;DHT22;22699;51.034;3.730;2024-03-08T07:52:42;5.90;99.90
36716;DHT22;22699;51.034;3.730;2024-03-08T07:55:08;5.70;99.90
36716;DHT22;22699;51.034;3.730;2024-03-08T07:57:34;5.90;99.90
36716;DHT22;22699;51.034;3.730;2024-03-08T07:59:59;6.00;99.90
36716;DHT22;22699;51.034;3.730;2024-03-08T08:02:25;7.20;99.90
36716;DHT22;22699;51.034;3.730;2024-03-08T08:04:53;9.20;99.90
36716;DHT22;22699;51.034;3.730;2024-03-08T08:07:20;10.50;95.80
36716;DHT22;22699;51.034;3.730;2024-03-08T08:09:45;12.30;93.70
36716;DHT22;22699;51.034;3.730;2024-03-08T08:12:11;14.70;90.20
36716;DHT22;22699;51.034;3.730;2024-03-08T08:14:57;15.80;83.30
36716;DHT22;22699;51.034;3.730;2024-03-08T08:17:23;16.00;78.80
36716;DHT22;22699;51.034;3.730;2024-03-08T08:19:48;17.50;74.50
36716;DHT22;22699;51.034;3.730;2024-03-08T08:22:15;18.70;72.30
36716;DHT22;22699;51.034;3.730;2024-03-08T08:24:40;18.80;67.70
36716;DHT22;22699;51.034;3.730;2024-03-08T08:27:06;18.60;65.20
36716;DHT22;22699;51.034;3.730;2024-03-08T08:29:32;19.40;64.90
36716;DHT22;22699;51.034;3.730;2024-03-08T08:31:58;19.90;62.00
36716;DHT22;22699;51.034;3.730;2024-03-08T08:34:25;21.00;61.10
36716;DHT22;22699;51.034;3.730;2024-03-08T08:36:52;20.50;59.90
36716;DHT22;22699;51.034;3.730;2024-03-08T08:39:18;22.10;57.60
36716;DHT22;22699;51.034;3.730;2024-03-08T08:41:44;22.20;57.00
36716;DHT22;22699;51.034;3.730;2024-03-08T08:44:11;22.40;55.40
36716;DHT22;22699;51.034;3.730;2024-03-08T08:46:38;23.80;53.40
36716;DHT22;22699;51.034;3.730;2024-03-08T08:49:04;20.00;55.70
36716;DHT22;22699;51.034;3.730;2024-03-08T08:51:31;19.20;59.00
36716;DHT22;22699;51.034;3.730;2024-03-08T08:53:59;20.90;56.80
36716;DHT22;22699;51.034;3.730;2024-03-08T08:56:25;21.90;54.80
36716;DHT22;22699;51.034;3.730;2024-03-08T08:58:51;23.70;54.00
36716;DHT22;22699;51.034;3.730;2024-03-08T09:01:19;23.60;51.50
36716;DHT22;22699;51.034;3.730;2024-03-08T09:03:44;24.00;50.70
36716;DHT22;22699;51.034;3.730;2024-03-08T09:06:12;24.90;49.70
36716;DHT22;22699;51.034;3.730;2024-03-08T09:08:39;24.30;49.20
36716;DHT22;22699;51.034;3.730;2024-03-08T09:11:04;24.10;50.50
36716;DHT22;22699;51.034;3.730;2024-03-08T09:13:30;24.80;48.90
36716;DHT22;22699;51.034;3.730;2024-03-08T09:15:56;24.30;48.70
36716;DHT22;22699;51.034;3.730;2024-03-08T09:18:22;24.50;49.10
36716;DHT22;22699;51.034;3.730;2024-03-08T09:20:49;24.90;48.10
36716;DHT22;22699;51.034;3.730;2024-03-08T09:23:15;24.40;48.80
36716;DHT22;22699;51.034;3.730;2024-03-08T09:25:42;22.60;50.40
36716;DHT22;22699;51.034;3.730;2024-03-08T09:28:09;22.60;50.20
36716;DHT22;22699;51.034;3.730;2024-03-08T09:30:40;23.90;49.50
36716;DHT22;22699;51.034;3.730;2024-03-08T09:33:06;23.50;49.70
36716;DHT22;22699;51.034;3.730;2024-03-08T09:35:32;20.90;52.40
36716;DHT22;22699;51.034;3.730;2024-03-08T09:37:58;21.10;52.70
36716;DHT22;22699;51.034;3.730;2024-03-08T09:40:24;20.50;52.50
36716;DHT22;22699;51.034;3.730;2024-03-08T09:42:51;19.90;53.70
36716;DHT22;22699;51.034;3.730;2024-03-08T09:45:20;18.10;56.70
36716;DHT22;22699;51.034;3.730;2024-03-08T09:47:47;19.40;54.90
36716;DHT22;22699;51.034;3.730;2024-03-08T09:50:14;16.70;59.10
36716;DHT22;22699;51.034;3.730;2024-03-08T09:52:44;14.90;61.60
36716;DHT22;22699;51.034;3.730;2024-03-08T09:55:11;13.60;66.00
36716;DHT22;22699;51.034;3.730;2024-03-08T09:57:38;13.50;66.80
36716;DHT22;22699;51.034;3.730;2024-03-08T10:00:06;12.90;67.70
36716;DHT22;22699;51.034;3.730;2024-03-08T10:02:47;12.20;69.90
36716;DHT22;22699;51.034;3.730;2024-03-08T10:05:14;11.80;72.00
36716;DHT22;22699;51.034;3.730;2024-03-08T10:07:40;12.10;71.80
36716;DHT22;22699;51.034;3.730;2024-03-08T10:10:06;12.10;70.80
36716;DHT22;22699;51.034;3.730;2024-03-08T10:12:34;12.00;71.30
36716;DHT22;22699;51.034;3.730;2024-03-08T10:15:01;10.90;74.40
36716;DHT22;22699;51.034;3.730;2024-03-08T10:17:27;10.80;75.60
36716;DHT22;22699;51.034;3.730;2024-03-08T10:19:57;10.20;77.60
36716;DHT22;22699;51.034;3.730;2024-03-08T10:22:25;9.60;80.70
36716;DHT22;22699;51.034;3.730;2024-03-08T10:24:51;9.60;80.90
36716;DHT22;22699;51.034;3.730;2024-03-08T10:27:17;9.40;80.80
36716;DHT22;22699;51.034;3.730;2024-03-08T10:29:48;9.30;82.50
36716;DHT22;22699;51.034;3.730;2024-03-08T10:32:14;9.00;83.10
36716;DHT22;22699;51.034;3.730;2024-03-08T10:34:39;9.10;83.90
36716;DHT22;22699;51.034;3.730;2024-03-08T10:37:07;9.10;84.70
36716;DHT22;22699;51.034;3.730;2024-03-08T10:39:37;9.10;85.00
36716;DHT22;22699;51.034;3.730;2024-03-08T10:42:05;9.10;84.20
36716;DHT22;22699;51.034;3.730;2024-03-08T10:52:16;9.20;84.30
36716;DHT22;22699;51.034;3.730;2024-03-08T10:54:45;9.00;85.50
36716;DHT22;22699;51.034;3.730;2024-03-08T10:57:12;9.20;85.80
36716;DHT22;22699;51.034;3.730;2024-03-08T10:59:39;9.30;85.30
36716;DHT22;22699;51.034;3.730;2024-03-08T11:02:05;9.40;84.70
36716;DHT22;22699;51.034;3.730;2024-03-08T11:04:33;9.70;84.10
36716;DHT22;22699;51.034;3.730;2024-03-08T11:07:02;9.60;83.80
36716;DHT22;22699;51.034;3.730;2024-03-08T11:09:35;9.60;83.80
36716;DHT22;22699;51.034;3.730;2024-03-08T11:12:24;9.70;83.80
36716;DHT22;22699;51.034;3.730;2024-03-08T11:14:56;9.70;84.20
36716;DHT22;22699;51.034;3.730;2024-03-08T11:19:56;9.90;84.10
36716;DHT22;22699;51.034;3.730;2024-03-08T11:22:23;9.90;83.60
36716;DHT22;22699;51.034;3.730;2024-03-08T11:24:52;9.80;84.10
36716;DHT22;22699;51.034;3.730;2024-03-08T11:27:18;9.70;84.50
36716;DHT22;22699;51.034;3.730;2024-03-08T11:30:02;9.80;84.90
36716;DHT22;22699;51.034;3.730;2024-03-08T11:32:36;9.90;84.70
36716;DHT22;22699;51.034;3.730;2024-03-08T11:35:06;10.10;84.60
36716;DHT22;22699;51.034;3.730;2024-03-08T11:37:34;10.40;83.50
36716;DHT22;22699;51.034;3.730;2024-03-08T11:40:12;10.00;83.50
36716;DHT22;22699;51.034;3.730;2024-03-08T11:42:40;9.80;84.40
36716;DHT22;22699;51.034;3.730;2024-03-08T11:45:10;9.70;85.20
36716;DHT22;22699;51.034;3.730;2024-03-08T11:47:37;9.90;84.80
36716;DHT22;22699;51.034;3.730;2024-03-08T11:50:07;9.90;86.40
36716;DHT22;22699;51.034;3.730;2024-03-08T11:52:36;10.20;85.10
36716;DHT22;22699;51.034;3.730;2024-03-08T11:55:03;10.10;84.70
36716;DHT22;22699;51.034;3.730;2024-03-08T11:57:30;10.20;85.30
36716;DHT22;22699;51.034;3.730;2024-03-08T11:59:58;10.20;84.90
36716;DHT22;22699;51.034;3.730;2024-03-08T12:02:31;10.20;84.40
36716;DHT22;22699;51.034;3.730;2024-03-08T12:04:58;10.50;84.60
36716;DHT22;22699;51.034;3.730;2024-03-08T12:07:25;10.60;84.60
36716;DHT22;22699;51.034;3.730;2024-03-08T12:10:21;10.50;83.50
36716;DHT22;22699;51.034;3.730;2024-03-08T12:12:49;10.30;84.50
36716;DHT22;22699;51.034;3.730;2024-03-08T12:15:17;10.20;84.60
36716;DHT22;22699;51.034;3.730;2024-03-08T12:17:44;10.40;85.00
36716;DHT22;22699;51.034;3.730;2024-03-08T12:20:17;10.30;85.00
36716;DHT22;22699;51.034;3.730;2024-03-08T12:22:44;10.40;84.30
36716;DHT22;22699;51.034;3.730;2024-03-08T12:25:13;10.50;85.00
36716;DHT22;22699;51.034;3.730;2024-03-08T12:27:40;10.80;84.70
36716;DHT22;22699;51.034;3.730;2024-03-08T12:30:24;10.70;84.70
36716;DHT22;22699;51.034;3.730;2024-03-08T12:33:00;10.90;84.20
36716;DHT22;22699;51.034;3.730;2024-03-08T12:35:30;11.00;84.00
36716;DHT22;22699;51.034;3.730;2024-03-08T12:37:57;11.10;82.80
36716;DHT22;22699;51.034;3.730;2024-03-08T12:40:31;11.20;82.60
36716;DHT22;22699;51.034;3.730;2024-03-08T12:43:01;11.10;82.90
36716;DHT22;22699;51.034;3.730;2024-03-08T12:45:28;11.10;83.40
36716;DHT22;22699;51.034;3.730;2024-03-08T12:47:54;11.00;83.10
36716;DHT22;22699;51.034;3.730;2024-03-08T12:50:21;10.90;84.20
36716;DHT22;22699;51.034;3.730;2024-03-08T12:52:47;11.10;83.70
36716;DHT22;22699;51.034;3.730;2024-03-08T12:55:14;11.10;83.20
36716;DHT22;22699;51.034;3.730;2024-03-08T12:57:42;11.20;83.00
36716;DHT22;22699;51.034;3.730;2024-03-08T13:00:08;11.20;83.20
36716;DHT22;22699;51.034;3.730;2024-03-08T13:02:39;11.50;83.10
36716;DHT22;22699;51.034;3.730;2024-03-08T13:05:05;11.60;82.40
36716;DHT22;22699;51.034;3.730;2024-03-08T13:07:31;11.30;82.90
36716;DHT22;22699;51.034;3.730;2024-03-08T13:09:57;11.40;83.10
36716;DHT22;22699;51.034;3.730;2024-03-08T13:12:25;11.40;82.80
36716;DHT22;22699;51.034;3.730;2024-03-08T13:14:51;11.30;83.40
36716;DHT22;22699;51.034;3.730;2024-03-08T13:17:17;11.20;84.00
36716;DHT22;22699;51.034;3.730;2024-03-08T13:19:46;11.40;84.60
36716;DHT22;22699;51.034;3.730;2024-03-08T13:22:12;11.40;83.00
36716;DHT22;22699;51.034;3.730;2024-03-08T13:24:44;11.50;82.90
36716;DHT22;22699;51.034;3.730;2024-03-08T13:27:11;11.60;82.50
36716;DHT22;22699;51.034;3.730;2024-03-08T13:29:53;11.50;82.60
36716;DHT22;22699;51.034;3.730;2024-03-08T13:32:19;11.60;82.30
36716;DHT22;22699;51.034;3.730;2024-03-08T13:34:46;11.70;82.80
36716;DHT22;22699;51.034;3.730;2024-03-08T13:37:13;11.90;82.10
36716;DHT22;22699;51.034;3.730;2024-03-08T13:39:41;11.90;81.80
36716;DHT22;22699;51.034;3.730;2024-03-08T13:42:11;11.90;82.20
36716;DHT22;22699;51.034;3.730;2024-03-08T13:44:39;11.70;82.50
36716;DHT22;22699;51.034;3.730;2024-03-08T13:47:08;11.80;82.20
36716;DHT22;22699;51.034;3.730;2024-03-08T13:49:34;11.90;81.80
36716;DHT22;22699;51.034;3.730;2024-03-08T13:52:00;11.90;81.80
36716;DHT22;22699;51.034;3.730;2024-03-08T13:54:25;11.80;82.40
36716;DHT22;22699;51.034;3.730;2024-03-08T13:56:52;11.90;82.20
36716;DHT22;22699;51.034;3.730;2024-03-08T13:59:20;12.20;81.60
36716;DHT22;22699;51.034;3.730;2024-03-08T14:01:48;12.00;81.10
36716;DHT22;22699;51.034;3.730;2024-03-08T14:04:14;11.90;81.20
36716;DHT22;22699;51.034;3.730;2024-03-08T14:06:42;11.90;82.00
36716;DHT22;22699;51.034;3.730;2024-03-08T14:09:13;12.00;81.80
36716;DHT22;22699;51.034;3.730;2024-03-08T14:11:45;12.00;81.80
36716;DHT22;22699;51.034;3.730;2024-03-08T14:14:12;12.20;81.20
36716;DHT22;22699;51.034;3.730;2024-03-08T14:16:40;12.20;80.70
36716;DHT22;22699;51.034;3.730;2024-03-08T14:19:06;12.40;80.30
36716;DHT22;22699;51.034;3.730;2024-03-08T14:21:32;12.50;79.90
36716;DHT22;22699;51.034;3.730;2024-03-08T14:23:58;12.30;79.90
36716;DHT22;22699;51.034;3.730;2024-03-08T14:26:24;12.20;79.90
36716;DHT22;22699;51.034;3.730;2024-03-08T14:28:51;12.10;79.90
36716;DHT22;22699;51.034;3.730;2024-03-08T14:31:20;12.00;80.80
36716;DHT22;22699;51.034;3.730;2024-03-08T14:33:45;12.20;80.40
36716;DHT22;22699;51.034;3.730;2024-03-08T14:36:15;12.20;80.40
36716;DHT22;22699;51.034;3.730;2024-03-08T14:38:43;12.60;80.50
36716;DHT22;22699;51.034;3.730;2024-03-08T14:41:08;12.20;80.30
36716;DHT22;22699;51.034;3.730;2024-03-08T14:43:34;12.30;80.80
36716;DHT22;22699;51.034;3.730;2024-03-08T14:46:00;12.30;80.60
36716;DHT22;22699;51.034;3.730;2024-03-08T14:48:26;12.30;80.50
36716;DHT22;22699;51.034;3.730;2024-03-08T14:50:51;12.50;79.80
36716;DHT22;22699;51.034;3.730;2024-03-08T14:53:18;12.70;78.90
36716;DHT22;22699;51.034;3.730;2024-03-08T14:55:44;12.80;78.80
36716;DHT22;22699;51.034;3.730;2024-03-08T14:58:13;12.90;78.30
36716;DHT22;22699;51.034;3.730;2024-03-08T15:00:38;12.90;78.50
36716;DHT22;22699;51.034;3.730;2024-03-08T15:03:05;12.60;79.10
36716;DHT22;22699;51.034;3.730;2024-03-08T15:05:33;12.80;79.00
36716;DHT22;22699;51.034;3.730;2024-03-08T15:08:03;13.00;78.40
36716;DHT22;22699;51.034;3.730;2024-03-08T15:10:36;12.80;78.70
36716;DHT22;22699;51.034;3.730;2024-03-08T15:13:02;12.80;79.30
36716;DHT22;22699;51.034;3.730;2024-03-08T15:15:33;12.70;79.00
36716;DHT22;22699;51.034;3.730;2024-03-08T15:17:59;12.80;78.80
36716;DHT22;22699;51.034;3.730;2024-03-08T15:20:24;12.60;79.30
36716;DHT22;22699;51.034;3.730;2024-03-08T15:22:54;12.40;79.60
36716;DHT22;22699;51.034;3.730;2024-03-08T15:25:24;12.40;79.90
36716;DHT22;22699;51.034;3.730;2024-03-08T15:27:53;12.40;80.00
36716;DHT22;22699;51.034;3.730;2024-03-08T15:30:19;12.50;79.90
36716;DHT22;22699;51.034;3.730;2024-03-08T15:32:48;12.70;79.30
36716;DHT22;22699;51.034;3.730;2024-03-08T15:35:18;12.70;79.70
36716;DHT22;22699;51.034;3.730;2024-03-08T15:37:44;12.80;79.00
36716;DHT22;22699;51.034;3.730;2024-03-08T15:40:14;12.80;79.20
36716;DHT22;22699;51.034;3.730;2024-03-08T15:42:55;12.50;79.70
36716;DHT22;22699;51.034;3.730;2024-03-08T15:45:23;12.60;79.50
36716;DHT22;22699;51.034;3.730;2024-03-08T15:47:52;12.60;79.50
36716;DHT22;22699;51.034;3.730;2024-03-08T15:50:18;12.80;79.20
36716;DHT22;22699;51.034;3.730;2024-03-08T15:52:46;12.80;79.60